createdAt,value
2023-04-03T00:01:21.051Z,8.10
2023-04-03T00:04:22.758Z,8.60
2023-04-03T00:07:24.413Z,7.90
2023-04-03T00:13:27.879Z,8.30
2023-04-03T00:16:29.645Z,9.20
2023-04-03T00:22:33.080Z,10.50
2023-04-03T00:28:38.773Z,8.80
2023-04-03T00:31:41.086Z,9.90
2023-04-03T00:34:42.644Z,8.50
2023-04-03T00:37:44.781Z,8.90
2023-04-03T00:40:49.264Z,9.10
2023-04-03T00:43:50.928Z,8.70
2023-04-03T00:46:52.745Z,9.30
2023-04-03T00:52:57.038Z,7.90
2023-04-03T00:56:00.023Z,8.30
2023-04-03T00:59:05.984Z,8.30
2023-04-03T01:02:07.722Z,7.90
2023-04-03T01:08:11.861Z,7.70
2023-04-03T01:11:13.814Z,7.40
2023-04-03T01:14:15.379Z,8.00
2023-04-03T01:17:31.295Z,8.50
2023-04-03T01:20:38.661Z,8.00
2023-04-03T01:23:49.263Z,8.30
2023-04-03T01:26:50.872Z,8.10
2023-04-03T01:29:52.640Z,8.00
2023-04-03T01:35:56.121Z,8.00
2023-04-03T01:41:59.799Z,8.00
2023-04-03T01:45:05.080Z,7.70
2023-04-03T01:48:06.719Z,7.00
2023-04-03T01:51:08.379Z,8.40
2023-04-03T01:54:09.997Z,8.30
2023-04-03T01:57:11.661Z,7.70
2023-04-03T02:06:17.036Z,8.10
2023-04-03T02:09:18.661Z,8.00
2023-04-03T02:12:20.226Z,7.60
2023-04-03T02:15:21.818Z,7.80
2023-04-03T02:18:23.449Z,7.80
2023-04-03T02:21:25.105Z,7.90
2023-04-03T02:24:26.738Z,7.80
2023-04-03T02:27:28.327Z,7.80
2023-04-03T02:33:31.841Z,6.60
2023-04-03T02:36:33.491Z,7.40
2023-04-03T02:39:35.926Z,7.10
2023-04-03T02:42:37.672Z,7.10
2023-04-03T02:45:39.265Z,7.00
2023-04-03T02:48:40.946Z,6.90
2023-04-03T02:51:42.663Z,7.20
2023-04-03T02:57:45.753Z,6.10
2023-04-03T03:00:47.337Z,6.10
2023-04-03T03:03:49.283Z,6.70
2023-04-03T03:06:50.818Z,6.80
2023-04-03T03:09:52.454Z,6.20
2023-04-03T03:12:54.042Z,6.50
2023-04-03T03:15:55.781Z,6.50
2023-04-03T03:22:00.196Z,6.70
2023-04-03T03:25:02.262Z,6.20
2023-04-03T03:28:03.916Z,7.10
2023-04-03T03:31:06.207Z,6.80
2023-04-03T03:34:07.745Z,6.90
2023-04-03T03:37:09.503Z,6.80
2023-04-03T03:40:11.541Z,7.50
2023-04-03T03:43:13.149Z,7.90
2023-04-03T03:46:14.780Z,7.00
2023-04-03T03:52:17.921Z,7.40
2023-04-03T03:55:19.460Z,7.20
2023-04-03T03:58:20.982Z,7.30
2023-04-03T04:01:24.005Z,7.00
2023-04-03T04:04:25.554Z,6.90
2023-04-03T04:07:27.079Z,6.90
2023-04-03T04:10:28.704Z,7.40
2023-04-03T04:16:31.963Z,6.50
2023-04-03T04:22:35.297Z,6.20
2023-04-03T04:25:37.226Z,7.10
2023-04-03T04:28:38.953Z,7.10
2023-04-03T04:31:40.566Z,7.20
2023-04-03T04:37:44.215Z,7.00
2023-04-03T04:43:47.224Z,7.20
2023-04-03T04:46:48.807Z,6.70
2023-04-03T04:52:52.236Z,6.80
2023-04-03T04:55:54.166Z,7.50
2023-04-03T04:58:55.921Z,7.30
2023-04-03T05:04:59.028Z,7.40
2023-04-03T05:08:00.717Z,7.20
2023-04-03T05:14:03.798Z,6.80
2023-04-03T05:17:05.683Z,7.60
2023-04-03T05:20:08.060Z,7.50
2023-04-03T05:23:10.854Z,8.30
2023-04-03T05:26:12.459Z,8.10
2023-04-03T05:29:14.113Z,7.40
2023-04-03T05:35:17.322Z,8.40
2023-04-03T05:41:20.758Z,7.80
2023-04-03T05:47:23.992Z,7.70
2023-04-03T05:50:25.977Z,7.90
2023-04-03T05:53:32.760Z,8.10
2023-04-03T05:56:34.312Z,8.20
2023-04-03T05:59:35.994Z,7.50
2023-04-03T06:02:37.734Z,7.90
2023-04-03T06:08:41.494Z,7.90
2023-04-03T06:11:43.251Z,8.40
2023-04-03T06:17:46.402Z,7.40
2023-04-03T06:20:48.258Z,7.50
2023-04-03T06:23:49.962Z,7.50
2023-04-03T06:26:52.293Z,7.30
2023-04-03T06:29:53.944Z,7.20
2023-04-03T06:32:55.659Z,7.10
2023-04-03T06:39:00.038Z,6.00
2023-04-03T06:45:03.431Z,6.10
2023-04-03T06:48:05.570Z,5.80
2023-04-03T06:51:07.171Z,6.10
2023-04-03T06:54:09.156Z,6.00
2023-04-03T06:57:10.845Z,6.20
2023-04-03T07:00:13.142Z,6.10
2023-04-03T07:03:15.119Z,5.30
2023-04-03T07:06:18.357Z,5.40
2023-04-03T07:09:20.010Z,5.50
2023-04-03T07:12:21.694Z,5.40
2023-04-03T07:18:25.745Z,4.40
2023-04-03T07:21:27.339Z,5.20
2023-04-03T07:27:30.878Z,4.90
2023-04-03T07:30:32.573Z,5.20
2023-04-03T07:36:36.052Z,4.90
2023-04-03T07:42:39.367Z,5.00
2023-04-03T07:45:41.528Z,5.20
2023-04-03T07:48:43.306Z,5.00
2023-04-03T07:54:46.868Z,5.10
2023-04-03T07:57:48.437Z,5.40
2023-04-03T08:00:50.180Z,5.60
2023-04-03T08:06:53.794Z,5.20
2023-04-03T08:12:56.938Z,5.10
2023-04-03T08:15:58.759Z,5.50
2023-04-03T08:19:00.378Z,4.60
2023-04-03T08:22:02.108Z,4.70
2023-04-03T08:28:05.549Z,5.00
2023-04-03T08:31:09.723Z,5.50
2023-04-03T08:34:11.462Z,4.80
2023-04-03T08:37:13.091Z,5.00
2023-04-03T08:40:16.737Z,5.10
2023-04-03T08:43:29.962Z,5.60
2023-04-03T08:46:43.983Z,5.70
2023-04-03T08:50:11.026Z,5.40
2023-04-03T08:53:21.625Z,5.20
2023-04-03T08:56:23.869Z,6.10
2023-04-03T08:59:30.190Z,5.30
2023-04-03T09:02:44.764Z,5.70
2023-04-03T09:05:46.388Z,5.10
2023-04-03T09:09:03.151Z,5.60
2023-04-03T09:12:20.554Z,5.20
2023-04-03T09:15:35.390Z,5.30
2023-04-03T09:18:46.046Z,5.00
2023-04-03T09:21:47.545Z,5.10
2023-04-03T09:24:56.966Z,5.00
2023-04-03T09:27:58.924Z,5.00
2023-04-03T09:31:01.497Z,5.50
2023-04-03T09:34:07.400Z,5.40
2023-04-03T09:37:08.995Z,5.20
2023-04-03T09:40:25.833Z,6.00
2023-04-03T09:43:32.732Z,6.10
2023-04-03T09:46:35.353Z,5.50
2023-04-03T09:49:37.025Z,5.50
2023-04-03T09:52:39.472Z,6.40
2023-04-03T09:55:45.535Z,6.60
2023-04-03T09:59:00.840Z,6.50
2023-04-03T10:02:30.567Z,6.70
2023-04-03T10:05:35.816Z,6.70
2023-04-03T10:08:37.419Z,5.90
2023-04-03T10:11:39.098Z,6.40
2023-04-03T10:14:54.510Z,6.10
2023-04-03T10:18:14.420Z,6.40
2023-04-03T10:21:42.677Z,6.30
2023-04-03T10:25:04.644Z,5.80
2023-04-03T10:28:37.729Z,6.00
2023-04-03T10:32:04.193Z,6.60
2023-04-03T10:35:11.241Z,5.20
2023-04-03T10:38:31.338Z,5.20
2023-04-03T10:41:51.531Z,5.00
2023-04-03T10:45:12.262Z,5.40
2023-04-03T10:48:54.942Z,5.30
2023-04-03T10:52:15.335Z,5.10
2023-04-03T10:55:32.864Z,5.20
2023-04-03T10:58:37.449Z,5.20
2023-04-03T11:01:41.798Z,5.10
2023-04-03T11:04:46.353Z,5.20
2023-04-03T11:07:51.188Z,5.50
2023-04-03T11:10:55.724Z,5.40
2023-04-03T11:14:14.427Z,4.90
2023-04-03T11:17:19.100Z,4.80
2023-04-03T11:20:24.525Z,5.00
2023-04-03T11:23:30.237Z,4.80
2023-04-03T11:26:38.301Z,4.60
2023-04-03T11:29:41.618Z,4.50
2023-04-03T11:32:55.201Z,4.70
2023-04-03T11:36:19.072Z,4.70
2023-04-03T11:39:33.048Z,4.30
2023-04-03T11:42:38.541Z,4.80
2023-04-03T11:45:49.556Z,4.60
2023-04-03T11:48:51.839Z,4.70
2023-04-03T11:51:53.462Z,4.50
2023-04-03T11:54:55.232Z,5.50
2023-04-03T12:01:10.710Z,4.60
2023-04-03T12:04:14.531Z,4.50
2023-04-03T12:07:19.575Z,4.60
2023-04-03T12:10:31.727Z,5.20
2023-04-03T12:13:34.291Z,5.00
2023-04-03T12:16:38.784Z,4.80
2023-04-03T12:19:42.841Z,4.90
2023-04-03T12:23:09.080Z,5.10
2023-04-03T12:26:22.944Z,4.60
2023-04-03T12:29:33.543Z,4.80
2023-04-03T12:32:41.245Z,4.60
2023-04-03T12:36:13.009Z,4.80
2023-04-03T12:39:23.852Z,5.00
2023-04-03T12:42:35.888Z,4.40
2023-04-03T12:45:53.586Z,4.40
2023-04-03T12:48:58.729Z,4.30
2023-04-03T12:52:00.977Z,4.40
2023-04-03T12:55:04.004Z,4.80
2023-04-03T12:58:22.606Z,4.10
2023-04-03T13:01:26.820Z,5.00
2023-04-03T13:04:29.572Z,5.30
2023-04-03T13:07:35.188Z,5.20
2023-04-03T13:10:49.293Z,4.90
2023-04-03T13:14:13.891Z,6.90
2023-04-03T13:17:17.046Z,5.00
2023-04-03T13:20:24.664Z,4.50
2023-04-03T13:23:26.269Z,4.40
2023-04-03T13:29:37.116Z,4.40
2023-04-03T13:32:38.841Z,4.40
2023-04-03T13:35:42.203Z,4.40
2023-04-03T13:38:44.047Z,5.00
2023-04-03T13:41:51.418Z,4.60
2023-04-03T13:45:28.307Z,4.90
2023-04-03T13:48:36.595Z,4.30
2023-04-03T13:51:39.752Z,4.10
2023-04-03T13:54:41.489Z,4.80
2023-04-03T13:57:56.146Z,6.30
2023-04-03T14:01:18.746Z,4.50
2023-04-03T14:04:27.500Z,4.40
2023-04-03T14:07:30.816Z,4.50
2023-04-03T14:10:32.447Z,4.60
2023-04-03T14:13:34.045Z,4.80
2023-04-03T14:16:41.530Z,4.70
2023-04-03T14:19:43.368Z,5.90
2023-04-03T14:22:45.531Z,4.90
2023-04-03T14:25:47.492Z,5.00
2023-04-03T14:28:53.645Z,4.70
2023-04-03T14:32:07.390Z,4.60
2023-04-03T14:35:17.088Z,4.60
2023-04-03T14:38:28.760Z,4.20
2023-04-03T14:41:30.605Z,4.80
2023-04-03T14:44:32.202Z,4.20
2023-04-03T14:47:34.326Z,4.70
2023-04-03T14:50:36.280Z,4.20
2023-04-03T14:53:39.390Z,4.20
2023-04-03T14:56:41.344Z,4.50
2023-04-03T14:59:44.674Z,5.30
2023-04-03T15:02:47.601Z,5.40
2023-04-03T15:05:50.377Z,4.50
2023-04-03T15:08:51.954Z,4.30
2023-04-03T15:11:55.099Z,4.10
2023-04-03T15:15:01.760Z,4.30
2023-04-03T15:18:04.718Z,4.50
2023-04-03T15:21:06.711Z,4.70
2023-04-03T15:24:10.327Z,5.40
2023-04-03T15:27:13.343Z,4.40
2023-04-03T15:30:18.166Z,4.40
2023-04-03T15:33:19.949Z,4.20
2023-04-03T15:36:33.310Z,5.10
2023-04-03T15:39:36.684Z,4.60
2023-04-03T15:42:39.347Z,4.20
2023-04-03T15:45:41.555Z,4.90
2023-04-03T15:48:43.384Z,5.20
2023-04-03T15:51:45.130Z,5.10
2023-04-03T15:57:48.256Z,4.80
2023-04-03T16:03:51.514Z,5.00
2023-04-03T16:06:53.353Z,5.50
2023-04-03T16:09:54.959Z,4.60
2023-04-03T16:12:56.689Z,4.70
2023-04-03T16:15:58.428Z,5.10
2023-04-03T16:22:01.579Z,6.00
2023-04-03T16:25:04.808Z,5.70
2023-04-03T16:28:06.594Z,5.60
2023-04-03T16:31:08.537Z,6.30
2023-04-03T16:34:10.792Z,6.60
2023-04-03T16:37:13.184Z,6.40
2023-04-03T16:40:15.272Z,6.80
2023-04-03T16:43:17.148Z,6.40
2023-04-03T16:46:18.976Z,6.60
2023-04-03T16:52:22.316Z,6.40
2023-04-03T16:55:24.184Z,6.20
2023-04-03T16:58:25.956Z,5.90
2023-04-03T17:01:27.708Z,6.20
2023-04-03T17:04:29.624Z,6.60
2023-04-03T17:10:33.077Z,6.20
2023-04-03T17:13:35.129Z,7.10
2023-04-03T17:16:37.944Z,9.00
2023-04-03T17:19:40.697Z,8.00
2023-04-03T17:22:42.403Z,8.00
2023-04-03T17:28:46.369Z,9.50
2023-04-03T17:31:48.930Z,7.20
2023-04-03T17:34:50.906Z,8.60
2023-04-03T17:37:52.629Z,7.80
2023-04-03T17:40:58.313Z,7.60
2023-04-03T17:44:00.161Z,6.70
2023-04-03T17:50:03.924Z,8.60
2023-04-03T17:53:05.519Z,9.30
2023-04-03T17:59:16.761Z,10.90
2023-04-03T18:02:18.602Z,10.20
2023-04-03T18:05:20.524Z,9.70
2023-04-03T18:11:27.332Z,11.50
2023-04-03T18:14:29.331Z,11.20
2023-04-03T18:17:31.086Z,11.50
2023-04-03T18:23:36.593Z,11.30
2023-04-03T18:26:38.690Z,11.40
2023-04-03T18:32:42.911Z,9.40
2023-04-03T18:35:45.035Z,9.90
2023-04-03T18:41:49.140Z,10.60
2023-04-03T18:44:53.862Z,12.30
2023-04-03T18:47:55.930Z,11.30
2023-04-03T18:50:57.759Z,12.80
2023-04-03T18:53:59.565Z,13.40
2023-04-03T18:57:01.540Z,13.70
2023-04-03T19:06:07.631Z,16.70
2023-04-03T19:09:09.570Z,16.70
2023-04-03T19:15:14.560Z,19.10
2023-04-03T19:18:16.338Z,18.70
2023-04-03T19:21:18.372Z,18.80
2023-04-03T19:24:20.205Z,20.50
2023-04-03T19:30:23.621Z,20.40
2023-04-03T19:33:26.345Z,21.20
2023-04-03T19:36:28.244Z,23.00
2023-04-03T19:42:34.195Z,19.00
2023-04-03T19:48:37.646Z,18.50
2023-04-03T19:51:39.282Z,21.60
2023-04-03T19:54:41.074Z,25.50
2023-04-03T19:57:42.628Z,24.00
2023-04-03T20:00:44.727Z,28.00
2023-04-03T20:06:48.242Z,24.50
2023-04-03T20:12:51.878Z,20.70
2023-04-03T20:15:53.724Z,25.00
2023-04-03T20:18:56.536Z,25.50
2023-04-03T20:22:00.823Z,27.60
2023-04-03T20:25:06.431Z,26.50
2023-04-03T20:28:08.684Z,20.20
2023-04-03T20:31:10.423Z,20.00
2023-04-03T20:37:13.903Z,17.60
2023-04-03T20:40:15.575Z,19.90
2023-04-03T20:43:17.145Z,20.50
2023-04-03T20:46:18.912Z,19.20
2023-04-03T20:49:21.743Z,18.90
2023-04-03T20:52:23.380Z,19.80
2023-04-03T20:55:25.046Z,16.90
2023-04-03T20:58:30.125Z,17.30
2023-04-03T21:01:32.402Z,17.10
2023-04-03T21:04:39.976Z,17.60
2023-04-03T21:08:19.830Z,17.20
2023-04-03T21:11:59.387Z,14.90
2023-04-03T21:15:39.033Z,15.00
2023-04-03T21:18:55.886Z,14.60
2023-04-03T21:22:00.660Z,13.50
2023-04-03T21:25:02.353Z,15.80
2023-04-03T21:31:05.585Z,15.10
2023-04-03T21:37:08.945Z,17.60
2023-04-03T21:40:10.784Z,19.10
2023-04-03T21:46:14.325Z,17.40
2023-04-03T21:49:15.912Z,18.30
2023-04-03T21:52:17.586Z,16.30
2023-04-03T21:55:19.302Z,14.90
2023-04-03T21:58:21.427Z,14.20
2023-04-03T22:01:23.016Z,13.70
2023-04-03T22:04:24.585Z,13.00
2023-04-03T22:07:26.517Z,11.70
2023-04-03T22:10:28.040Z,12.00
2023-04-03T22:13:30.536Z,11.70
2023-04-03T22:16:32.386Z,13.40
2023-04-03T22:19:35.506Z,11.60
2023-04-03T22:22:37.003Z,11.20
2023-04-03T22:25:38.516Z,10.70
2023-04-03T22:28:43.610Z,10.20
2023-04-03T22:31:45.243Z,10.70
2023-04-03T22:34:46.817Z,12.80
2023-04-03T22:37:48.380Z,11.80
2023-04-03T22:41:00.265Z,10.00
2023-04-03T22:47:03.524Z,10.90
2023-04-03T22:50:05.836Z,9.90
2023-04-03T22:53:07.408Z,8.20
2023-04-03T22:56:08.967Z,9.20
2023-04-03T22:59:10.559Z,8.90
2023-04-03T23:02:12.342Z,9.70
2023-04-03T23:05:16.983Z,9.20
2023-04-03T23:11:21.062Z,9.00
2023-04-03T23:14:22.760Z,10.40
2023-04-03T23:17:24.399Z,9.00
2023-04-03T23:20:25.938Z,9.30
2023-04-03T23:23:27.553Z,9.20
2023-04-03T23:26:29.169Z,8.60
2023-04-03T23:29:33.805Z,9.50
2023-04-03T23:32:35.400Z,9.10
2023-04-03T23:35:50.716Z,9.80
2023-04-03T23:38:56.247Z,8.40
2023-04-03T23:41:58.032Z,8.00
2023-04-03T23:44:59.746Z,8.40
2023-04-03T23:48:01.360Z,8.40
2023-04-03T23:51:03.094Z,8.10
2023-04-03T23:57:06.169Z,8.10
